F69 weather

Air Park Dallas Airport
Dallas, Texas, United States

Public forecast

Using degrees Fahrenheit for public forecast. Weather courtesy of forecast.io.

METAR (pilot weather report)

Closest report is Addison Airport, 3.3 nm (6.1 km) S. Retrieved 2019/03/24 13:53 UTC (56 minutes ago):

KADS 241353Z 18011G17KT 10SM OVC008 18/16 A3005

TAF (pilot weather forecast)

Closest forecast is Dallas Love Field, 10.6 nm (19.7 km) S. Retrieved 2019/03/24 12:45 UTC (2 hours ago):

TAF KDAL 241142Z 2412/2512 17009KT P6SM SCT015 SCT035 TEMPO 2412/2414 BKN015 FM241600 19015G20KT P6SM SCT035 BKN060 FM250100 21008KT P6SM VCTS BKN070CB BKN150 FM250500 34009KT P6SM VCSH SCT050 BKN120 FM250900 02011KT P6SM SCT100 BKN250